createdAt,value
2024-01-06T00:01:22.670Z,96765.39
2024-01-06T00:03:50.271Z,96766.98
2024-01-06T00:06:17.696Z,96761.48
2024-01-06T00:08:45.279Z,96760.73
2024-01-06T00:11:12.908Z,96760.02
2024-01-06T00:13:40.656Z,96759.18
2024-01-06T00:16:08.023Z,96760.95
2024-01-06T00:18:35.591Z,96758.79
2024-01-06T00:21:03.343Z,96759.45
2024-01-06T00:23:30.838Z,96758.25
2024-01-06T00:25:58.433Z,96765.15
2024-01-06T00:28:26.108Z,96763.31
2024-01-06T00:30:54.810Z,96760.85
2024-01-06T00:33:22.650Z,96757.27
2024-01-06T00:35:50.118Z,96756.16
2024-01-06T00:38:17.505Z,96750.21
2024-01-06T00:40:45.244Z,96754.37
2024-01-06T00:43:12.753Z,96757.85
2024-01-06T00:45:40.513Z,96753.59
2024-01-06T00:48:08.437Z,96755.07
2024-01-06T00:50:36.176Z,96749.17
2024-01-06T00:53:03.881Z,96742.67
2024-01-06T00:55:31.801Z,96747.62
2024-01-06T00:57:59.494Z,96753.99
2024-01-06T01:00:28.765Z,96759.49
2024-01-06T01:02:56.666Z,96760.86
2024-01-06T01:05:24.305Z,96763.30
2024-01-06T01:07:51.711Z,96763.27
2024-01-06T01:10:19.114Z,96765.79
2024-01-06T01:12:46.718Z,96761.48
2024-01-06T01:15:14.425Z,96764.03
2024-01-06T01:17:42.531Z,96754.53
2024-01-06T01:20:10.405Z,96755.20
2024-01-06T01:22:38.008Z,96756.14
2024-01-06T01:25:08.896Z,96754.15
2024-01-06T01:27:36.482Z,96749.13
2024-01-06T01:30:04.813Z,96745.30
2024-01-06T01:32:32.523Z,96744.31
2024-01-06T01:35:00.128Z,96743.63
2024-01-06T01:37:27.765Z,96743.29
2024-01-06T01:39:55.325Z,96749.33
2024-01-06T01:42:22.719Z,96747.26
2024-01-06T01:44:50.194Z,96747.14
2024-01-06T01:47:20.070Z,96751.65
2024-01-06T01:49:48.444Z,96741.64
2024-01-06T01:52:16.292Z,96741.45
2024-01-06T01:54:43.932Z,96746.33
2024-01-06T01:57:11.757Z,96752.23
2024-01-06T01:59:39.491Z,96751.67
2024-01-06T02:02:07.696Z,96753.17
2024-01-06T02:04:35.212Z,96747.08
2024-01-06T02:07:02.586Z,96747.02
2024-01-06T02:09:30.813Z,96742.88
2024-01-06T02:11:59.286Z,96743.60
2024-01-06T02:14:26.831Z,96742.98
2024-01-06T02:16:54.462Z,96740.22
2024-01-06T02:19:22.126Z,96745.69
2024-01-06T02:21:53.056Z,96736.88
2024-01-06T02:24:21.200Z,96740.48
2024-01-06T02:26:48.692Z,96742.67
2024-01-06T02:29:16.253Z,96744.11
2024-01-06T02:31:43.941Z,96741.17
2024-01-06T02:34:11.634Z,96737.78
2024-01-06T02:36:39.158Z,96735.56
2024-01-06T02:39:06.725Z,96737.15
2024-01-06T02:41:34.322Z,96734.48
2024-01-06T02:44:04.059Z,96731.25
2024-01-06T02:46:31.470Z,96722.17
2024-01-06T02:48:58.940Z,96721.91
2024-01-06T02:51:26.654Z,96720.89
2024-01-06T02:53:54.306Z,96724.15
2024-01-06T02:56:21.964Z,96722.72
2024-01-06T02:58:50.299Z,96722.77
2024-01-06T03:01:18.890Z,96721.71
2024-01-06T03:03:46.679Z,96723.65
2024-01-06T03:06:14.289Z,96718.11
2024-01-06T03:08:41.850Z,96713.45
2024-01-06T03:11:09.240Z,96711.17
2024-01-06T03:13:36.704Z,96716.00
2024-01-06T03:16:07.423Z,96712.49
2024-01-06T03:18:35.255Z,96707.27
2024-01-06T03:21:02.817Z,96707.70
2024-01-06T03:23:30.256Z,96709.92
2024-01-06T03:25:58.017Z,96713.78
2024-01-06T03:28:25.661Z,96711.81
2024-01-06T03:30:53.256Z,96712.41
2024-01-06T03:33:21.022Z,96716.48
2024-01-06T03:35:48.925Z,96716.19
2024-01-06T03:38:16.387Z,96714.64
2024-01-06T03:40:43.876Z,96710.77
2024-01-06T03:43:11.640Z,96712.23
2024-01-06T03:45:39.292Z,96721.31
2024-01-06T03:48:07.933Z,96708.67
2024-01-06T03:50:35.448Z,96694.46
2024-01-06T03:53:03.067Z,96709.59
2024-01-06T03:55:31.007Z,96716.88
2024-01-06T03:57:58.558Z,96712.83
2024-01-06T04:00:27.233Z,96700.15
2024-01-06T04:02:54.957Z,96689.92
2024-01-06T04:05:22.547Z,96689.60
2024-01-06T04:07:50.209Z,96692.75
2024-01-06T04:10:18.448Z,96694.39
2024-01-06T04:12:46.053Z,96697.35
2024-01-06T04:15:13.680Z,96696.02
2024-01-06T04:17:41.504Z,96690.85
2024-01-06T04:20:12.625Z,96683.31
2024-01-06T04:22:40.179Z,96687.63
2024-01-06T04:25:08.150Z,96683.91
2024-01-06T04:27:36.219Z,96685.42
2024-01-06T04:30:04.937Z,96691.23
2024-01-06T04:32:32.445Z,96684.77
2024-01-06T04:35:00.085Z,96681.86
2024-01-06T04:37:27.643Z,96680.48
2024-01-06T04:39:55.135Z,96674.78
2024-01-06T04:42:23.888Z,96679.08
2024-01-06T04:44:51.776Z,96677.09
2024-01-06T04:47:19.720Z,96675.12
2024-01-06T04:49:47.370Z,96671.27
2024-01-06T04:52:14.949Z,96670.14
2024-01-06T04:54:42.352Z,96671.27
2024-01-06T04:57:09.868Z,96676.92
2024-01-06T04:59:37.517Z,96680.59
2024-01-06T05:02:06.214Z,96681.23
2024-01-06T05:04:34.054Z,96680.80
2024-01-06T05:07:01.732Z,96680.48
2024-01-06T05:09:29.375Z,96682.77
2024-01-06T05:11:57.014Z,96681.92
2024-01-06T05:14:25.030Z,96687.81
2024-01-06T05:16:52.499Z,96686.81
2024-01-06T05:19:22.381Z,96687.79
2024-01-06T05:21:50.256Z,96688.19
2024-01-06T05:24:18.302Z,96686.15
2024-01-06T05:26:45.806Z,96685.58
2024-01-06T05:29:13.224Z,96686.62
2024-01-06T05:31:40.664Z,96682.88
2024-01-06T05:34:08.395Z,96683.54
2024-01-06T05:36:36.402Z,96686.33
2024-01-06T05:39:04.011Z,96684.23
2024-01-06T05:41:35.101Z,96681.33
2024-01-06T05:44:02.496Z,96678.97
2024-01-06T05:46:29.887Z,96680.98
2024-01-06T05:48:57.864Z,96687.64
2024-01-06T05:51:25.413Z,96690.75
2024-01-06T05:53:53.123Z,96692.75
2024-01-06T05:56:27.121Z,96697.02
2024-01-06T05:58:54.943Z,96691.45
2024-01-06T06:01:23.906Z,96688.48
2024-01-06T06:03:52.303Z,96681.46
2024-01-06T06:06:20.308Z,96681.21
2024-01-06T06:08:49.638Z,96682.45
2024-01-06T06:11:17.941Z,96685.83
2024-01-06T06:13:45.660Z,96679.77
2024-01-06T06:16:15.947Z,96680.70
2024-01-06T06:18:43.514Z,96678.10
2024-01-06T06:21:12.481Z,96676.80
2024-01-06T06:23:40.278Z,96675.92
2024-01-06T06:26:08.371Z,96677.13
2024-01-06T06:28:36.351Z,96679.11
2024-01-06T06:31:04.320Z,96680.77
2024-01-06T06:33:32.369Z,96678.55
2024-01-06T06:36:00.170Z,96680.28
2024-01-06T06:38:27.608Z,96683.36
2024-01-06T06:40:55.156Z,96683.30
2024-01-06T06:43:22.686Z,96689.34
2024-01-06T06:45:50.279Z,96689.08
2024-01-06T06:50:19.671Z,96695.93
2024-01-06T06:52:47.460Z,96696.18
2024-01-06T06:55:15.016Z,96697.52
2024-01-06T06:57:42.398Z,96690.47
2024-01-06T07:00:10.823Z,96687.23
2024-01-06T07:02:38.563Z,96689.72
2024-01-06T07:05:08.213Z,96684.24
2024-01-06T07:07:35.704Z,96682.37
2024-01-06T07:10:04.938Z,96681.50
2024-01-06T07:12:33.128Z,96680.96
2024-01-06T07:15:00.715Z,96683.94
2024-01-06T07:17:28.455Z,96685.58
2024-01-06T07:19:55.975Z,96689.74
2024-01-06T07:22:23.685Z,96687.65
2024-01-06T07:24:51.213Z,96691.31
2024-01-06T07:27:18.793Z,96689.24
2024-01-06T07:29:46.240Z,96681.41
2024-01-06T07:32:13.980Z,96684.02
2024-01-06T07:34:41.554Z,96684.68
2024-01-06T07:37:09.196Z,96686.09
2024-01-06T07:39:36.674Z,96683.10
2024-01-06T07:42:04.896Z,96693.17
2024-01-06T07:44:32.406Z,96694.45
2024-01-06T07:47:00.197Z,96688.04
2024-01-06T07:49:27.698Z,96691.14
2024-01-06T07:51:55.168Z,96691.80
2024-01-06T07:54:22.935Z,96695.83
2024-01-06T07:56:50.610Z,96694.95
2024-01-06T07:59:18.483Z,96699.13
2024-01-06T08:01:46.001Z,96699.14
2024-01-06T08:04:13.688Z,96695.13
2024-01-06T08:06:41.473Z,96690.13
2024-01-06T08:09:09.696Z,96691.11
2024-01-06T08:11:37.182Z,96689.95
2024-01-06T08:14:04.613Z,96689.86
2024-01-06T08:16:33.690Z,96695.65
2024-01-06T08:19:01.679Z,96698.94
2024-01-06T08:21:29.515Z,96706.30
2024-01-06T08:23:57.041Z,96710.75
2024-01-06T08:26:24.433Z,96706.92
2024-01-06T08:28:52.064Z,96700.08
2024-01-06T08:31:19.841Z,96697.41
2024-01-06T08:33:47.461Z,96692.81
2024-01-06T08:36:15.113Z,96696.09
2024-01-06T08:38:42.731Z,96702.04
2024-01-06T08:41:10.298Z,96706.73
2024-01-06T08:43:37.707Z,96703.48
2024-01-06T08:46:07.191Z,96708.73
2024-01-06T08:48:36.110Z,96714.95
2024-01-06T08:51:04.593Z,96715.65
2024-01-06T08:53:32.231Z,96715.62
2024-01-06T08:55:59.825Z,96719.95
2024-01-06T08:58:27.428Z,96718.23
2024-01-06T09:00:55.037Z,96711.55
2024-01-06T09:03:27.792Z,96709.09
2024-01-06T09:05:57.480Z,96708.36
2024-01-06T09:08:25.406Z,96708.73
2024-01-06T09:10:57.004Z,96713.13
2024-01-06T09:13:25.348Z,96719.50
2024-01-06T09:15:52.924Z,96723.23
2024-01-06T09:18:20.580Z,96724.67
2024-01-06T09:20:51.464Z,96724.30
2024-01-06T09:23:20.312Z,96722.91
2024-01-06T09:25:53.621Z,96731.32
2024-01-06T09:28:22.890Z,96727.28
2024-01-06T09:30:50.485Z,96722.89
2024-01-06T09:33:19.213Z,96722.36
2024-01-06T09:35:46.820Z,96717.73
2024-01-06T09:38:14.252Z,96715.21
2024-01-06T09:40:43.618Z,96709.75
2024-01-06T09:43:12.935Z,96707.42
2024-01-06T09:45:40.959Z,96718.30
2024-01-06T09:48:17.700Z,96721.08
2024-01-06T09:50:48.202Z,96723.52
2024-01-06T09:53:17.443Z,96725.33
2024-01-06T09:55:46.469Z,96727.06
2024-01-06T09:58:14.047Z,96720.02
2024-01-06T10:00:41.833Z,96723.90
2024-01-06T10:03:09.807Z,96723.56
2024-01-06T10:05:37.735Z,96720.68
2024-01-06T10:08:05.995Z,96721.59
2024-01-06T10:10:35.590Z,96716.52
2024-01-06T10:13:04.411Z,96719.31
2024-01-06T10:15:32.647Z,96717.46
2024-01-06T10:18:00.564Z,96717.13
2024-01-06T10:20:28.400Z,96716.10
2024-01-06T10:22:55.835Z,96715.75
2024-01-06T10:25:24.825Z,96719.66
2024-01-06T10:27:53.890Z,96721.48
2024-01-06T10:30:21.719Z,96725.48
2024-01-06T10:32:50.667Z,96723.73
2024-01-06T10:35:19.296Z,96724.38
2024-01-06T10:37:46.978Z,96729.29
2024-01-06T10:40:20.171Z,96728.39
2024-01-06T10:42:48.974Z,96729.45
2024-01-06T10:45:17.004Z,96728.15
2024-01-06T10:47:45.430Z,96724.77
2024-01-06T10:50:14.459Z,96726.73
2024-01-06T10:52:42.977Z,96723.80
2024-01-06T10:55:10.975Z,96720.64
2024-01-06T10:57:38.916Z,96714.27
2024-01-06T11:00:07.539Z,96716.62
2024-01-06T11:02:35.222Z,96714.14
2024-01-06T11:05:03.294Z,96706.58
2024-01-06T11:07:30.885Z,96703.59
2024-01-06T11:10:17.024Z,96700.86
2024-01-06T11:12:44.972Z,96697.26
2024-01-06T11:15:40.036Z,96693.84
2024-01-06T11:18:07.775Z,96687.51
2024-01-06T11:20:35.941Z,96682.40
2024-01-06T11:23:24.662Z,96673.79
2024-01-06T11:25:52.149Z,96667.48
2024-01-06T11:28:19.981Z,96669.45
2024-01-06T11:30:47.788Z,96661.13
2024-01-06T11:33:15.506Z,96659.13
2024-01-06T11:35:43.280Z,96657.59
2024-01-06T11:38:10.926Z,96655.73
2024-01-06T11:40:38.672Z,96651.95
2024-01-06T11:43:06.787Z,96654.30
2024-01-06T11:45:38.946Z,96654.09
2024-01-06T11:48:09.254Z,96656.04
2024-01-06T11:50:38.173Z,96655.46
2024-01-06T11:53:06.027Z,96655.83
2024-01-06T11:55:33.901Z,96653.37
2024-01-06T11:58:05.708Z,96652.36
2024-01-06T12:00:38.764Z,96650.91
2024-01-06T12:03:06.377Z,96649.98
2024-01-06T12:05:34.565Z,96646.53
2024-01-06T12:08:04.975Z,96644.30
2024-01-06T12:10:33.525Z,96646.41
2024-01-06T12:13:02.128Z,96648.42
2024-01-06T12:15:31.343Z,96649.15
2024-01-06T12:17:59.161Z,96652.82
2024-01-06T12:20:27.416Z,96654.56
2024-01-06T12:22:55.028Z,96658.08
2024-01-06T12:25:26.980Z,96654.80
2024-01-06T12:27:55.170Z,96659.37
2024-01-06T12:30:24.114Z,96670.31
2024-01-06T12:32:53.782Z,96666.30
2024-01-06T12:35:21.816Z,96668.13
2024-01-06T12:37:49.449Z,96667.59
2024-01-06T12:40:18.854Z,96657.31
2024-01-06T12:42:46.835Z,96658.03
2024-01-06T12:45:17.036Z,96658.68
2024-01-06T12:47:44.892Z,96657.46
2024-01-06T12:50:12.585Z,96661.68
2024-01-06T12:52:40.903Z,96660.59
2024-01-06T12:55:09.419Z,96658.11
2024-01-06T12:57:37.339Z,96663.67
2024-01-06T13:00:12.041Z,96668.07
2024-01-06T13:02:39.492Z,96670.42
2024-01-06T13:05:07.115Z,96672.16
2024-01-06T13:07:34.881Z,96673.70
2024-01-06T13:10:02.666Z,96672.42
2024-01-06T13:12:30.694Z,96676.33
2024-01-06T13:14:58.753Z,96675.94
2024-01-06T13:17:26.531Z,96675.12
2024-01-06T13:19:54.125Z,96675.44
2024-01-06T13:22:23.697Z,96678.96
2024-01-06T13:24:54.093Z,96680.01
2024-01-06T13:27:22.133Z,96680.77
2024-01-06T13:29:49.953Z,96676.75
2024-01-06T13:32:17.446Z,96678.46
2024-01-06T13:34:45.001Z,96681.18
2024-01-06T13:37:12.614Z,96691.02
2024-01-06T13:39:40.100Z,96694.83
2024-01-06T13:42:07.621Z,96694.98
2024-01-06T13:44:35.116Z,96699.17
2024-01-06T13:47:02.591Z,96698.30
2024-01-06T13:49:30.324Z,96692.29
2024-01-06T13:51:58.031Z,96696.75
2024-01-06T13:54:25.559Z,96691.73
2024-01-06T13:56:53.379Z,96691.16
2024-01-06T13:59:20.823Z,96700.69
2024-01-06T14:01:48.275Z,96704.02
2024-01-06T14:04:16.135Z,96702.40
2024-01-06T14:06:44.095Z,96706.80
2024-01-06T14:09:13.202Z,96705.61
2024-01-06T14:11:40.772Z,96709.66
2024-01-06T14:14:08.221Z,96713.67
2024-01-06T14:16:36.347Z,96710.80
2024-01-06T14:19:04.149Z,96709.45
2024-01-06T14:21:31.767Z,96710.37
2024-01-06T14:24:00.894Z,96712.96
2024-01-06T14:26:28.342Z,96714.70
2024-01-06T14:28:55.712Z,96714.55
2024-01-06T14:31:23.286Z,96709.76
2024-01-06T14:33:51.120Z,96715.77
2024-01-06T14:36:19.630Z,96716.13
2024-01-06T14:38:47.321Z,96720.09
2024-01-06T14:41:15.284Z,96724.70
2024-01-06T14:43:42.835Z,96724.98
2024-01-06T14:46:10.599Z,96728.67
2024-01-06T14:48:38.189Z,96725.19
2024-01-06T14:51:05.834Z,96723.17
2024-01-06T14:53:36.013Z,96723.16
2024-01-06T14:56:05.021Z,96725.30
2024-01-06T14:58:32.617Z,96727.80
2024-01-06T15:01:01.464Z,96731.40
2024-01-06T15:03:29.256Z,96729.64
2024-01-06T15:05:56.787Z,96731.45
2024-01-06T15:08:24.821Z,96732.81
2024-01-06T15:10:52.218Z,96727.84
2024-01-06T15:13:19.917Z,96730.33
2024-01-06T15:15:50.735Z,96725.77
2024-01-06T15:18:21.861Z,96725.06
2024-01-06T15:20:49.652Z,96725.72
2024-01-06T15:23:20.002Z,96728.50
2024-01-06T15:25:48.174Z,96726.02
2024-01-06T15:28:15.839Z,96719.75
2024-01-06T15:30:43.502Z,96719.72
2024-01-06T15:33:11.280Z,96726.97
2024-01-06T15:35:38.931Z,96728.45
2024-01-06T15:38:06.346Z,96731.91
2024-01-06T15:40:34.485Z,96733.90
2024-01-06T15:43:02.593Z,96738.98
2024-01-06T15:45:30.536Z,96733.40
2024-01-06T15:47:58.437Z,96736.44
2024-01-06T15:50:26.763Z,96730.91
2024-01-06T15:52:54.218Z,96727.65
2024-01-06T15:55:21.706Z,96730.52
2024-01-06T15:57:49.210Z,96729.12
2024-01-06T16:00:18.622Z,96732.97
2024-01-06T16:02:46.156Z,96737.51
2024-01-06T16:05:14.811Z,96740.02
2024-01-06T16:07:42.502Z,96739.30
2024-01-06T16:10:12.524Z,96743.47
2024-01-06T16:12:42.497Z,96743.64
2024-01-06T16:15:10.404Z,96745.20
2024-01-06T16:17:38.534Z,96745.45
2024-01-06T16:20:07.646Z,96745.98
2024-01-06T16:22:35.400Z,96744.33
2024-01-06T16:25:03.143Z,96744.45
2024-01-06T16:27:30.666Z,96746.61
2024-01-06T16:29:58.435Z,96744.35
2024-01-06T16:32:25.951Z,96743.52
2024-01-06T16:34:53.780Z,96740.44
2024-01-06T16:37:21.387Z,96743.16
2024-01-06T16:39:50.072Z,96742.34
2024-01-06T16:42:17.763Z,96744.38
2024-01-06T16:44:45.290Z,96747.61
2024-01-06T16:47:12.740Z,96748.94
2024-01-06T16:49:40.448Z,96748.42
2024-01-06T16:52:08.343Z,96750.45
2024-01-06T16:54:35.812Z,96748.44
2024-01-06T16:57:05.076Z,96754.09
2024-01-06T16:59:35.112Z,96755.70
2024-01-06T17:02:05.184Z,96757.00
2024-01-06T17:04:33.803Z,96754.64
2024-01-06T17:07:03.202Z,96750.76
2024-01-06T17:09:31.183Z,96756.88
2024-01-06T17:11:58.645Z,96757.02
2024-01-06T17:14:26.320Z,96756.30
2024-01-06T17:16:53.730Z,96756.60
2024-01-06T17:19:21.200Z,96759.55
2024-01-06T17:21:49.160Z,96759.88
2024-01-06T17:24:16.741Z,96756.95
2024-01-06T17:26:44.340Z,96756.30
2024-01-06T17:29:12.059Z,96760.66
2024-01-06T17:31:40.067Z,96756.73
2024-01-06T17:34:09.782Z,96759.55
2024-01-06T17:36:37.999Z,96758.70
2024-01-06T17:39:05.724Z,96759.27
2024-01-06T17:41:37.828Z,96762.52
2024-01-06T17:44:10.944Z,96763.83
2024-01-06T17:46:38.370Z,96759.93
2024-01-06T17:49:07.725Z,96764.25
2024-01-06T17:51:36.074Z,96765.08
2024-01-06T17:54:03.816Z,96762.81
2024-01-06T17:56:31.244Z,96766.83
2024-01-06T17:59:02.700Z,96769.02
2024-01-06T18:01:30.533Z,96766.09
2024-01-06T18:03:58.679Z,96771.48
2024-01-06T18:06:26.936Z,96770.52
2024-01-06T18:08:54.453Z,96773.40
2024-01-06T18:11:21.979Z,96776.98
2024-01-06T18:13:49.833Z,96776.22
2024-01-06T18:16:17.476Z,96775.58
2024-01-06T18:18:45.077Z,96777.49
2024-01-06T18:21:12.899Z,96779.08
2024-01-06T18:23:40.441Z,96777.36
2024-01-06T18:26:08.009Z,96780.48
2024-01-06T18:28:37.069Z,96779.13
2024-01-06T18:31:05.428Z,96777.88
2024-01-06T18:33:33.550Z,96780.20
2024-01-06T18:36:01.160Z,96779.70
2024-01-06T18:38:28.910Z,96779.77
2024-01-06T18:41:00.515Z,96781.67
2024-01-06T18:43:28.798Z,96782.95
2024-01-06T18:45:56.482Z,96780.63
2024-01-06T18:48:24.298Z,96783.61
2024-01-06T18:50:52.068Z,96784.25
2024-01-06T18:53:21.056Z,96781.83
2024-01-06T18:55:48.918Z,96784.51
2024-01-06T18:58:17.153Z,96785.70
2024-01-06T19:00:44.831Z,96779.59
2024-01-06T19:03:12.482Z,96785.13
2024-01-06T19:07:36.878Z,96786.25
2024-01-06T19:10:05.121Z,96790.94
2024-01-06T19:12:32.631Z,96790.23
2024-01-06T19:15:00.289Z,96789.24
2024-01-06T19:17:27.759Z,96790.05
2024-01-06T19:19:55.383Z,96789.04
2024-01-06T19:22:24.091Z,96793.63
2024-01-06T19:24:52.789Z,96792.55
2024-01-06T19:27:20.280Z,96790.48
2024-01-06T19:29:47.742Z,96791.33
2024-01-06T19:32:16.893Z,96792.20
2024-01-06T19:34:45.004Z,96793.10
2024-01-06T19:37:12.763Z,96789.03
2024-01-06T19:39:40.379Z,96787.41
2024-01-06T19:42:08.530Z,96787.36
2024-01-06T19:44:36.291Z,96785.35
2024-01-06T19:47:03.963Z,96788.18
2024-01-06T19:49:31.954Z,96787.92
2024-01-06T19:51:59.737Z,96789.50
2024-01-06T19:54:27.706Z,96785.46
2024-01-06T19:56:55.178Z,96785.76
2024-01-06T19:59:22.583Z,96783.91
2024-01-06T20:01:50.298Z,96778.56
2024-01-06T20:04:18.081Z,96781.60
2024-01-06T20:06:46.443Z,96781.48
2024-01-06T20:09:14.469Z,96780.35
2024-01-06T20:11:41.912Z,96779.20
2024-01-06T20:14:09.491Z,96784.79
2024-01-06T20:16:37.124Z,96785.28
2024-01-06T20:19:04.858Z,96786.76
2024-01-06T20:21:32.633Z,96785.28
2024-01-06T20:24:00.586Z,96786.34
2024-01-06T20:26:30.183Z,96782.10
2024-01-06T20:29:00.283Z,96782.85
2024-01-06T20:31:28.049Z,96780.64
2024-01-06T20:33:55.902Z,96779.56
2024-01-06T20:36:23.649Z,96779.20
2024-01-06T20:38:53.364Z,96774.70
2024-01-06T20:41:20.864Z,96780.96
2024-01-06T20:43:48.280Z,96778.52
2024-01-06T20:46:19.864Z,96776.40
2024-01-06T20:48:47.681Z,96779.04
2024-01-06T20:51:21.505Z,96775.83
2024-01-06T20:53:49.575Z,96777.18
2024-01-06T20:56:18.006Z,96776.80
2024-01-06T20:58:45.513Z,96777.02
2024-01-06T21:01:13.559Z,96777.25
2024-01-06T21:03:42.812Z,96780.48
2024-01-06T21:06:11.219Z,96775.10
2024-01-06T21:08:38.862Z,96773.52
2024-01-06T21:11:08.917Z,96776.20
2024-01-06T21:13:36.378Z,96775.83
2024-01-06T21:16:04.614Z,96776.50
2024-01-06T21:18:32.306Z,96778.00
2024-01-06T21:20:59.940Z,96777.99
2024-01-06T21:23:35.756Z,96780.36
2024-01-06T21:26:13.036Z,96777.34
2024-01-06T21:28:40.625Z,96777.49
2024-01-06T21:31:10.163Z,96778.30
2024-01-06T21:33:38.078Z,96774.46
2024-01-06T21:36:05.879Z,96779.46
2024-01-06T21:38:33.529Z,96777.59
2024-01-06T21:41:00.937Z,96778.96
2024-01-06T21:43:29.605Z,96783.65
2024-01-06T21:45:57.577Z,96787.23
2024-01-06T21:48:25.291Z,96782.98
2024-01-06T21:50:54.747Z,96783.62
2024-01-06T21:53:22.201Z,96785.90
2024-01-06T21:55:50.759Z,96787.98
2024-01-06T21:58:18.227Z,96790.50
2024-01-06T22:00:45.937Z,96788.84
2024-01-06T22:03:17.075Z,96788.10
2024-01-06T22:05:44.940Z,96784.89
2024-01-06T22:08:12.823Z,96786.55
2024-01-06T22:10:40.645Z,96787.03
2024-01-06T22:13:08.239Z,96788.02
2024-01-06T22:15:36.684Z,96789.94
2024-01-06T22:18:04.850Z,96794.73
2024-01-06T22:20:32.600Z,96791.15
2024-01-06T22:23:00.442Z,96786.71
2024-01-06T22:25:27.825Z,96788.02
2024-01-06T22:27:56.056Z,96789.73
2024-01-06T22:30:23.800Z,96791.42
2024-01-06T22:32:51.533Z,96793.63
2024-01-06T22:35:19.076Z,96795.23
2024-01-06T22:37:47.874Z,96793.95
2024-01-06T22:40:17.451Z,96795.23
2024-01-06T22:42:44.840Z,96799.44
2024-01-06T22:45:12.475Z,96802.55
2024-01-06T22:47:40.418Z,96800.73
2024-01-06T22:50:09.358Z,96801.15
2024-01-06T22:52:36.753Z,96801.77
2024-01-06T22:55:07.690Z,96801.27
2024-01-06T22:57:35.472Z,96799.29
2024-01-06T23:00:11.953Z,96798.89
2024-01-06T23:02:39.711Z,96796.25
2024-01-06T23:05:08.126Z,96793.45
2024-01-06T23:07:35.839Z,96790.79
2024-01-06T23:10:03.539Z,96789.77
2024-01-06T23:12:31.288Z,96794.99
2024-01-06T23:14:58.842Z,96792.79
2024-01-06T23:17:26.535Z,96795.90
2024-01-06T23:19:54.238Z,96796.55
2024-01-06T23:22:21.837Z,96795.84
2024-01-06T23:24:49.500Z,96799.94
2024-01-06T23:27:17.118Z,96800.19
2024-01-06T23:29:44.674Z,96799.14
2024-01-06T23:32:12.544Z,96802.92
2024-01-06T23:34:42.947Z,96800.42
2024-01-06T23:37:11.335Z,96795.77
2024-01-06T23:39:39.146Z,96793.63
2024-01-06T23:42:07.185Z,96790.85
2024-01-06T23:44:34.563Z,96791.72
2024-01-06T23:47:02.116Z,96788.92
2024-01-06T23:49:29.851Z,96787.92
2024-01-06T23:51:57.658Z,96788.55
2024-01-06T23:54:25.429Z,96791.48
2024-01-06T23:56:53.085Z,96792.13
2024-01-06T23:59:21.016Z,96789.75
